Time;durP1;ratioP1;P1;durP2;ratioP2;P2;SDS_P1;SDS_P2;PMS_P1;PMS_P2;Temp;Humidity;BMP_temperature;BMP_pressure;BME280_temperature;BME280_humidity;BME280_pressure;Samples;Min_cycle;Max_cycle;Signal;HPM_P1;HPM_P2
2022/06/08 00:00:24;;;;;;;12.02;9.82;;;10.00;99.90;;;;;;5031825;28;20097;-77
2022/06/08 00:03:00;;;;;;;12.20;10.18;;;9.90;99.90;;;;;;5077125;28;20221;-77
2022/06/08 00:05:26;;;;;;;13.38;9.82;;;10.00;99.90;;;;;;5060684;28;20044;-77
2022/06/08 00:07:53;;;;;;;14.27;11.00;;;10.00;99.90;;;;;;5042743;28;20048;-77
2022/06/08 00:10:19;;;;;;;12.70;10.27;;;10.00;99.90;;;;;;5027269;28;20885;-77
2022/06/08 00:12:45;;;;;;;16.67;11.55;;;9.90;99.90;;;;;;5067202;28;20047;-77
2022/06/08 00:15:13;;;;;;;14.00;11.70;;;9.90;99.90;;;;;;5043836;28;20040;-77
2022/06/08 00:17:39;;;;;;;13.18;10.95;;;9.90;99.90;;;;;;5040791;28;20063;-78
2022/06/08 00:20:07;;;;;;;15.55;12.10;;;9.90;99.90;;;;;;5061833;28;20060;-77
2022/06/08 00:22:34;;;;;;;15.38;11.27;;;9.90;99.90;;;;;;5063618;28;20051;-78
2022/06/08 00:25:00;;;;;;;12.90;10.93;;;9.80;99.90;;;;;;5042463;28;20055;-77
2022/06/08 00:27:27;;;;;;;12.43;11.00;;;9.90;99.90;;;;;;5031102;28;20043;-77
2022/06/08 00:29:53;;;;;;;14.38;11.77;;;9.90;99.90;;;;;;5063334;28;20380;-77
2022/06/08 00:32:19;;;;;;;11.73;10.30;;;9.80;99.90;;;;;;5043241;28;20957;-80
2022/06/08 00:34:45;;;;;;;11.57;10.35;;;9.90;99.90;;;;;;5029377;28;20055;-78
2022/06/08 00:37:11;;;;;;;12.75;10.80;;;9.80;99.90;;;;;;5048670;28;20051;-78
2022/06/08 00:39:38;;;;;;;12.15;9.57;;;9.80;99.90;;;;;;5033810;28;20083;-78
2022/06/08 00:42:07;;;;;;;14.05;9.88;;;9.70;99.90;;;;;;5031592;28;20048;-78
2022/06/08 00:44:46;;;;;;;11.27;10.05;;;9.70;99.90;;;;;;5065826;28;20139;-78
2022/06/08 00:47:18;;;;;;;11.43;9.40;;;9.70;99.90;;;;;;5072755;28;20117;-78
2022/06/08 00:49:52;;;;;;;10.18;8.90;;;9.70;99.90;;;;;;5067154;28;20169;-78
2022/06/08 00:52:19;;;;;;;9.18;8.07;;;9.70;99.90;;;;;;5070393;28;20076;-78
2022/06/08 00:54:54;;;;;;;8.68;7.03;;;9.60;99.90;;;;;;5061167;28;22096;-78
2022/06/08 00:57:36;;;;;;;8.32;6.88;;;9.70;99.90;;;;;;5057517;28;20434;-78
2022/06/08 01:00:18;;;;;;;7.25;6.35;;;9.60;99.90;;;;;;5046270;28;20052;-78
2022/06/08 01:02:44;;;;;;;12.48;7.97;;;9.70;99.90;;;;;;5061242;28;20040;-77
2022/06/08 01:05:30;;;;;;;9.48;7.78;;;9.70;99.90;;;;;;5034755;28;20040;-77
2022/06/08 01:08:20;;;;;;;10.07;8.80;;;9.80;99.90;;;;;;5049725;28;20793;-77
2022/06/08 01:10:50;;;;;;;13.20;9.45;;;9.80;99.90;;;;;;5061435;28;20141;-77
2022/06/08 01:13:19;;;;;;;12.90;9.10;;;9.90;99.90;;;;;;5046246;28;20448;-78
2022/06/08 01:15:46;;;;;;;11.80;9.75;;;9.90;99.90;;;;;;5046998;28;20069;-78
2022/06/08 01:18:16;;;;;;;13.50;10.33;;;9.90;99.90;;;;;;5033462;28;20492;-78
2022/06/08 01:21:01;;;;;;;13.50;10.65;;;9.90;99.90;;;;;;5035447;28;20040;-78
2022/06/08 01:23:32;;;;;;;12.77;10.63;;;9.90;99.90;;;;;;5054426;28;20043;-78
2022/06/08 01:26:08;;;;;;;14.35;12.57;;;10.00;99.90;;;;;;5057626;28;20558;-78
2022/06/08 01:28:51;;;;;;;13.65;12.18;;;10.00;99.90;;;;;;5069871;28;20059;-78
2022/06/08 01:31:38;;;;;;;12.88;11.55;;;10.10;99.90;;;;;;5072520;28;20040;-78
2022/06/08 01:34:10;;;;;;;14.48;11.68;;;10.00;99.90;;;;;;5066842;28;20085;-78
2022/06/08 01:36:51;;;;;;;14.68;12.05;;;10.00;99.90;;;;;;5049152;28;20040;-78
2022/06/08 01:39:27;;;;;;;13.90;12.38;;;10.10;99.90;;;;;;5044615;28;20078;-77
2022/06/08 01:42:06;;;;;;;15.40;12.20;;;10.10;99.90;;;;;;5041969;28;20044;-77
2022/06/08 01:45:29;;;;;;;13.73;11.85;;;10.10;99.90;;;;;;5087352;28;20047;-78
2022/06/08 01:48:09;;;;;;;15.00;12.85;;;10.20;99.90;;;;;;5046115;28;20118;-77
2022/06/08 01:50:52;;;;;;;17.63;14.93;;;10.20;99.90;;;;;;5051352;28;20373;-77
2022/06/08 01:53:37;;;;;;;20.00;14.05;;;10.30;99.90;;;;;;5063289;28;20052;-77
2022/06/08 01:56:11;;;;;;;16.67;13.95;;;10.30;99.90;;;;;;5058141;28;20143;-78
2022/06/08 01:58:59;;;;;;;16.90;14.05;;;10.40;99.90;;;;;;5044576;28;20048;-78
2022/06/08 02:01:34;;;;;;;17.20;14.80;;;10.50;99.90;;;;;;5052723;28;20043;-78
2022/06/08 02:04:33;;;;;;;20.00;15.57;;;10.50;99.90;;;;;;5045049;28;20094;-78
2022/06/08 02:07:24;;;;;;;20.90;16.70;;;10.60;99.90;;;;;;5044941;28;20044;-78
2022/06/08 02:09:58;;;;;;;22.73;17.13;;;10.70;99.90;;;;;;5081437;28;20047;-77
2022/06/08 02:12:30;;;;;;;17.35;15.57;;;10.70;99.90;;;;;;5044540;28;20039;-78
2022/06/08 02:15:17;;;;;;;20.42;16.77;;;10.80;99.90;;;;;;5045257;28;20175;-79
2022/06/08 02:17:58;;;;;;;20.17;16.85;;;10.80;99.90;;;;;;5054746;28;20500;-79
2022/06/08 02:20:39;;;;;;;20.05;16.23;;;10.90;99.90;;;;;;5078042;28;20148;-78
2022/06/08 02:23:31;;;;;;;22.33;16.77;;;10.90;99.90;;;;;;5050796;28;20772;-78
2022/06/08 02:26:32;;;;;;;21.65;15.60;;;11.00;99.90;;;;;;5046398;28;20089;-78
2022/06/08 02:29:22;;;;;;;23.00;18.90;;;11.00;99.90;;;;;;5052443;28;20040;-78
2022/06/08 02:32:00;;;;;;;24.00;19.70;;;11.10;99.90;;;;;;5043820;28;20036;-78
2022/06/08 02:34:34;;;;;;;21.35;17.63;;;11.10;99.90;;;;;;5060366;28;20050;-78
2022/06/08 02:37:13;;;;;;;29.15;20.17;;;11.20;99.90;;;;;;5049285;28;20699;-78
2022/06/08 02:39:49;;;;;;;31.20;21.15;;;11.20;99.90;;;;;;5068537;28;20040;-78
2022/06/08 02:42:22;;;;;;;25.40;21.00;;;11.30;99.90;;;;;;5069423;28;20048;-78
2022/06/08 02:44:57;;;;;;;28.35;22.15;;;11.30;99.90;;;;;;5050579;28;21086;-78
2022/06/08 02:47:30;;;;;;;30.55;22.58;;;11.40;99.90;;;;;;5062244;28;20184;-77
2022/06/08 02:50:04;;;;;;;27.85;23.48;;;11.40;99.90;;;;;;5044862;28;20086;-78
2022/06/08 02:52:31;;;;;;;30.27;23.45;;;11.50;99.90;;;;;;5053442;28;20065;-78
2022/06/08 02:54:59;;;;;;;28.60;21.70;;;11.50;99.90;;;;;;5025732;28;20052;-77
2022/06/08 02:57:31;;;;;;;33.35;24.70;;;11.50;99.90;;;;;;5028687;28;20520;-77
2022/06/08 03:00:33;;;;;;;29.48;23.17;;;11.50;99.90;;;;;;5088059;28;20055;-78
2022/06/08 03:03:10;;;;;;;27.45;22.00;;;11.60;99.90;;;;;;5065028;28;20047;-78
2022/06/08 03:05:47;;;;;;;30.63;22.67;;;11.60;99.90;;;;;;5058774;28;20048;-78
2022/06/08 03:08:23;;;;;;;30.98;23.50;;;11.60;99.90;;;;;;5049625;28;20590;-78
2022/06/08 03:10:51;;;;;;;30.05;23.15;;;11.60;99.90;;;;;;5063032;28;20035;-78
2022/06/08 03:13:27;;;;;;;30.17;24.85;;;11.60;99.90;;;;;;5027860;28;20097;-78
2022/06/08 03:15:58;;;;;;;30.83;23.17;;;11.70;99.90;;;;;;5041218;28;20072;-78
2022/06/08 03:18:24;;;;;;;27.48;23.55;;;11.70;99.90;;;;;;5062117;28;20048;-78
2022/06/08 03:20:53;;;;;;;27.13;23.58;;;11.70;99.90;;;;;;5029047;28;20109;-77
2022/06/08 03:23:25;;;;;;;29.65;23.25;;;11.60;99.90;;;;;;5035485;28;20506;-77
2022/06/08 03:25:52;;;;;;;28.65;24.02;;;11.70;99.90;;;;;;5046275;28;20039;-78
2022/06/08 03:28:18;;;;;;;26.77;24.05;;;11.70;99.90;;;;;;5045040;28;20079;-78
2022/06/08 03:30:45;;;;;;;30.98;24.42;;;11.80;99.90;;;;;;5026027;28;20044;-78
2022/06/08 03:33:13;;;;;;;29.80;23.42;;;11.80;99.90;;;;;;5052821;28;20051;-78
2022/06/08 03:35:41;;;;;;;27.88;22.75;;;11.80;99.90;;;;;;5027784;28;20044;-78
2022/06/08 03:38:09;;;;;;;27.65;22.65;;;11.80;99.90;;;;;;5036668;28;20919;-78
2022/06/08 03:40:38;;;;;;;26.75;22.13;;;11.90;99.90;;;;;;5066534;28;20047;-78
2022/06/08 03:43:04;;;;;;;27.08;22.75;;;11.90;99.90;;;;;;5040682;28;20147;-78
2022/06/08 03:45:40;;;;;;;25.67;22.58;;;11.90;99.90;;;;;;5046050;28;20457;-78
2022/06/08 03:48:07;;;;;;;26.33;21.10;;;12.00;99.90;;;;;;5052425;28;20578;-78
2022/06/08 03:50:34;;;;;;;23.58;20.25;;;12.10;99.90;;;;;;5035278;28;20200;-78
2022/06/08 03:53:09;;;;;;;23.83;21.30;;;12.10;99.90;;;;;;5085680;28;20521;-78
2022/06/08 03:55:36;;;;;;;27.33;22.45;;;12.20;99.90;;;;;;5064367;28;20098;-78
2022/06/08 03:58:04;;;;;;;25.33;20.75;;;12.20;99.90;;;;;;5046556;28;20498;-78
2022/06/08 04:00:35;;;;;;;26.48;22.27;;;12.30;99.90;;;;;;5027916;28;20140;-78
2022/06/08 04:03:09;;;;;;;23.95;21.08;;;12.30;99.90;;;;;;5070949;28;20854;-78
2022/06/08 04:05:36;;;;;;;25.98;21.13;;;12.40;99.90;;;;;;5057348;28;20106;-78
2022/06/08 04:08:07;;;;;;;25.42;20.77;;;12.40;99.90;;;;;;5058774;28;20051;-79
2022/06/08 04:10:40;;;;;;;29.70;21.67;;;12.40;99.90;;;;;;5038035;28;20585;-79
2022/06/08 04:13:06;;;;;;;25.10;21.00;;;12.50;99.90;;;;;;5049341;28;20775;-78
2022/06/08 04:15:42;;;;;;;25.45;21.80;;;12.60;99.90;;;;;;5062624;28;20044;-79
2022/06/08 04:18:19;;;;;;;23.83;21.33;;;12.60;99.90;;;;;;5052083;28;20055;-78
2022/06/08 04:20:49;;;;;;;29.75;22.20;;;12.60;99.90;;;;;;5065860;28;20048;-78
2022/06/08 04:23:20;;;;;;;25.75;21.20;;;12.70;99.90;;;;;;5046180;28;20472;-78
2022/06/08 04:25:48;;;;;;;24.57;21.23;;;12.70;99.90;;;;;;5047690;28;20130;-79
2022/06/08 04:28:15;;;;;;;23.80;20.67;;;12.80;99.90;;;;;;5052624;28;20399;-78
2022/06/08 04:30:44;;;;;;;26.95;21.83;;;12.80;99.90;;;;;;5035615;28;20036;-79
2022/06/08 04:33:12;;;;;;;25.83;23.15;;;12.90;99.90;;;;;;5067137;28;20127;-78
2022/06/08 04:35:38;;;;;;;27.60;23.38;;;12.90;99.90;;;;;;5046897;28;20044;-78
2022/06/08 04:38:06;;;;;;;27.83;22.95;;;13.00;99.90;;;;;;5076263;28;20105;-78
2022/06/08 04:40:36;;;;;;;27.88;22.88;;;13.00;99.90;;;;;;5014344;28;20044;-78
2022/06/08 04:43:04;;;;;;;26.10;21.95;;;13.00;99.90;;;;;;5032194;28;20058;-78
2022/06/08 04:45:32;;;;;;;28.13;24.35;;;13.10;99.90;;;;;;5048895;28;20044;-78
2022/06/08 04:47:58;;;;;;;28.10;23.38;;;13.10;99.90;;;;;;5059617;28;20120;-78
2022/06/08 04:50:25;;;;;;;27.02;24.15;;;13.10;99.90;;;;;;5031527;28;20093;-78
2022/06/08 04:52:51;;;;;;;34.10;25.05;;;13.20;99.90;;;;;;5046774;28;20058;-79
2022/06/08 04:55:18;;;;;;;33.13;26.08;;;13.30;99.90;;;;;;5014649;28;20059;-79
2022/06/08 04:57:46;;;;;;;32.03;27.65;;;13.30;99.90;;;;;;5051070;28;20047;-78
2022/06/08 05:00:21;;;;;;;28.95;25.88;;;13.40;99.90;;;;;;5047679;28;20127;-79
2022/06/08 05:02:49;;;;;;;32.28;27.00;;;13.40;99.90;;;;;;5048109;28;20048;-79
2022/06/08 05:05:41;;;;;;;30.15;26.35;;;13.50;99.90;;;;;;5030731;28;20040;-79
2022/06/08 05:08:17;;;;;;;32.33;26.92;;;13.50;99.90;;;;;;5052929;28;20040;-79
2022/06/08 05:10:47;;;;;;;27.73;24.30;;;13.60;99.90;;;;;;5068152;28;20046;-79
2022/06/08 05:13:18;;;;;;;31.60;26.33;;;13.70;99.90;;;;;;5048191;28;20130;-80
2022/06/08 05:15:49;;;;;;;30.83;26.65;;;13.70;99.90;;;;;;5042756;28;20062;-80
2022/06/08 05:18:20;;;;;;;29.27;25.85;;;13.80;99.90;;;;;;5062365;28;20048;-82
2022/06/08 05:20:48;;;;;;;33.92;27.13;;;13.90;99.90;;;;;;5012190;28;20047;-81
2022/06/08 05:23:22;;;;;;;31.48;27.02;;;14.00;99.90;;;;;;5039792;28;20040;-80
2022/06/08 05:25:49;;;;;;;;;;;14.00;99.90;;;;;;5051201;28;20051;-80
2022/06/08 05:28:16;;;;;;;29.95;25.30;;;14.10;99.90;;;;;;5070210;28;19919;-81
2022/06/08 05:30:50;;;;;;;29.48;26.42;;;14.30;99.90;;;;;;5061871;28;20463;-85
2022/06/08 05:33:17;;;;;;;27.63;24.45;;;14.30;99.90;;;;;;5072578;28;20043;-77
2022/06/08 05:35:44;;;;;;;27.67;24.70;;;14.40;99.90;;;;;;5047574;28;20113;-77
2022/06/08 05:38:14;;;;;;;29.40;26.38;;;14.50;99.90;;;;;;5063276;28;20059;-77
2022/06/08 05:40:40;;;;;;;27.77;24.65;;;14.60;99.90;;;;;;5058617;28;20112;-77
2022/06/08 05:43:12;;;;;;;28.38;25.33;;;14.60;99.90;;;;;;5044118;28;20827;-77
2022/06/08 05:45:43;;;;;;;25.70;22.98;;;14.70;99.90;;;;;;5070174;28;20048;-77
2022/06/08 05:48:10;;;;;;;26.25;23.48;;;14.80;99.90;;;;;;5032549;28;21042;-77
2022/06/08 05:50:42;;;;;;;27.40;24.48;;;14.90;99.90;;;;;;5047232;28;20040;-77
2022/06/08 05:53:12;;;;;;;27.08;24.08;;;15.10;99.90;;;;;;5059843;28;20498;-77
2022/06/08 05:55:39;;;;;;;25.52;22.83;;;15.20;99.90;;;;;;5029496;28;20412;-78
2022/06/08 05:58:06;;;;;;;25.77;22.92;;;15.40;99.90;;;;;;5030418;28;20040;-78
2022/06/08 06:00:40;;;;;;;22.33;20.13;;;15.40;99.90;;;;;;5030004;28;20123;-75
2022/06/08 06:03:08;;;;;;;23.50;21.10;;;15.60;99.90;;;;;;5046614;28;20063;-76
2022/06/08 06:05:37;;;;;;;22.73;20.52;;;15.80;99.90;;;;;;5056917;28;20040;-76
2022/06/08 06:08:08;;;;;;;23.55;20.25;;;16.00;99.90;;;;;;5063180;28;20423;-76
2022/06/08 06:10:43;;;;;;;24.15;18.98;;;16.10;99.90;;;;;;5063729;28;20503;-79
2022/06/08 06:13:12;;;;;;;20.55;18.50;;;16.10;99.90;;;;;;5043508;28;20523;-77
2022/06/08 06:15:46;;;;;;;21.65;19.45;;;16.10;99.90;;;;;;5054255;28;20044;-77
2022/06/08 06:18:13;;;;;;;19.85;17.83;;;16.20;99.90;;;;;;5027413;28;20048;-76
2022/06/08 06:20:45;;;;;;;19.13;17.00;;;16.10;99.90;;;;;;5029541;28;20377;-76
2022/06/08 06:23:23;;;;;;;18.88;16.80;;;16.20;99.90;;;;;;5065660;28;20506;-77
2022/06/08 06:25:56;;;;;;;19.27;17.30;;;16.30;99.90;;;;;;5056946;28;20368;-77
2022/06/08 06:28:28;;;;;;;19.95;17.80;;;16.50;99.90;;;;;;5060880;28;20120;-77
2022/06/08 06:31:36;;;;;;;;;;;16.70;99.90;;;;;;4993657;28;20053;-77
2022/06/08 06:34:14;;;;;;;19.38;17.27;;;17.10;99.90;;;;;;5018150;28;19919;-77
2022/06/08 06:36:41;;;;;;;18.88;16.98;;;17.30;99.90;;;;;;5060163;28;20040;-77
2022/06/08 06:39:08;;;;;;;17.35;15.57;;;17.90;99.90;;;;;;5047681;28;20044;-77
2022/06/08 06:41:40;;;;;;;17.15;15.55;;;18.10;99.90;;;;;;5046224;28;20123;-78
2022/06/08 06:44:06;;;;;;;16.98;15.18;;;18.30;99.90;;;;;;5061707;28;20118;-78
2022/06/08 06:46:38;;;;;;;16.85;14.00;;;18.70;99.90;;;;;;5081199;28;20127;-78
2022/06/08 06:49:11;;;;;;;16.30;14.48;;;19.00;99.90;;;;;;5045838;28;20134;-78
2022/06/08 06:51:38;;;;;;;14.55;13.05;;;19.10;99.90;;;;;;5067711;28;20055;-77
2022/06/08 06:54:11;;;;;;;17.20;12.82;;;19.10;99.90;;;;;;5024405;28;20048;-77
2022/06/08 06:56:38;;;;;;;14.30;11.30;;;19.30;99.90;;;;;;5046754;28;20134;-77
2022/06/08 06:59:11;;;;;;;13.25;11.95;;;19.60;99.90;;;;;;5011469;28;20052;-79
2022/06/08 07:01:38;;;;;;;11.88;10.60;;;19.70;99.90;;;;;;5045559;28;20492;-79
2022/06/08 07:04:04;;;;;;;11.90;10.60;;;19.90;99.90;;;;;;5010539;28;20496;-77
2022/06/08 07:06:30;;;;;;;13.13;11.73;;;20.20;99.90;;;;;;5052946;28;20104;-77
2022/06/08 07:08:59;;;;;;;11.82;10.63;;;20.40;99.90;;;;;;5036600;28;20044;-78
2022/06/08 07:11:40;;;;;;;10.75;9.65;;;20.80;99.90;;;;;;5063229;28;20070;-78
2022/06/08 07:14:18;;;;;;;7.80;7.00;;;20.80;99.90;;;;;;5032413;28;20043;-79
2022/06/08 07:16:49;;;;;;;8.25;7.03;;;20.70;99.90;;;;;;5060241;28;20115;-79
2022/06/08 07:19:21;;;;;;;7.85;7.05;;;20.50;99.90;;;;;;5040238;28;20093;-79
2022/06/08 07:21:47;;;;;;;8.82;6.63;;;20.30;99.90;;;;;;5047861;28;20127;-79
2022/06/08 07:24:20;;;;;;;8.35;6.65;;;20.10;99.90;;;;;;5047483;28;20054;-79
2022/06/08 07:26:47;;;;;;;7.15;6.35;;;20.00;99.90;;;;;;5027680;28;20048;-79
2022/06/08 07:29:16;;;;;;;8.13;7.32;;;19.80;99.90;;;;;;5060006;28;20491;-79
2022/06/08 07:31:42;;;;;;;9.85;8.00;;;19.70;99.90;;;;;;5043205;28;20085;-79
2022/06/08 07:34:14;;;;;;;8.63;7.72;;;19.90;99.90;;;;;;5066271;28;20127;-79
2022/06/08 07:36:41;;;;;;;9.85;7.05;;;20.10;99.90;;;;;;5069751;28;20040;-80
2022/06/08 07:39:07;;;;;;;9.73;8.43;;;20.00;99.90;;;;;;5053792;28;20048;-79
2022/06/08 07:41:34;;;;;;;8.45;6.28;;;20.10;99.90;;;;;;5042477;28;20046;-79
2022/06/08 07:44:00;;;;;;;6.80;5.95;;;20.10;99.90;;;;;;5056870;28;20084;-79
2022/06/08 07:46:26;;;;;;;7.22;4.97;;;20.20;99.90;;;;;;5093863;28;20043;-79
2022/06/08 07:51:36;;;;;;;6.97;4.68;;;20.50;99.90;;;;;;5045508;28;20899;-80
2022/06/08 07:54:03;;;;;;;8.73;4.28;;;21.00;99.90;;;;;;5054661;28;20494;-82
2022/06/08 07:56:29;;;;;;;6.80;4.82;;;21.10;99.90;;;;;;5029006;28;20051;-79
2022/06/08 07:58:55;;;;;;;6.13;5.18;;;21.10;99.90;;;;;;5031019;28;20073;-79
2022/06/08 08:01:21;;;;;;;6.88;5.28;;;21.20;99.90;;;;;;5037920;28;20077;-79
2022/06/08 08:03:48;;;;;;;6.57;5.10;;;20.90;99.90;;;;;;5073760;28;20050;-79
2022/06/08 08:06:14;;;;;;;6.93;5.38;;;21.10;99.90;;;;;;5030206;28;20048;-79
2022/06/08 08:08:40;;;;;;;7.70;5.53;;;20.90;99.90;;;;;;5052867;28;20181;-79
2022/06/08 08:11:06;;;;;;;6.65;5.57;;;20.90;99.90;;;;;;5038787;28;20689;-78
2022/06/08 08:13:34;;;;;;;5.85;4.65;;;20.80;99.90;;;;;;5049952;28;20055;-78
2022/06/08 08:16:00;;;;;;;7.70;5.30;;;20.90;99.90;;;;;;5028082;28;20052;-78
2022/06/08 08:18:26;;;;;;;6.75;5.30;;;21.00;99.90;;;;;;5023740;28;20169;-75
2022/06/08 08:20:52;;;;;;;8.50;6.57;;;21.20;99.90;;;;;;5047613;28;20350;-78
2022/06/08 08:23:19;;;;;;;6.60;5.38;;;21.40;99.90;;;;;;5053235;28;20135;-81
2022/06/08 08:25:45;;;;;;;6.88;4.38;;;21.20;99.90;;;;;;5031378;28;21178;-78
2022/06/08 08:28:11;;;;;;;6.68;5.40;;;21.30;99.90;;;;;;5095141;28;20094;-81
2022/06/08 08:30:37;;;;;;;7.25;4.93;;;21.00;99.90;;;;;;5047346;28;20127;-78
2022/06/08 08:33:03;;;;;;;8.40;5.00;;;21.30;99.90;;;;;;5041032;28;20044;-78
2022/06/08 08:35:30;;;;;;;8.15;6.38;;;21.40;99.90;;;;;;5063917;28;20047;-78
2022/06/08 08:37:57;;;;;;;7.43;5.68;;;21.40;99.90;;;;;;5051110;28;20052;-78
2022/06/08 08:40:39;;;;;;;5.68;4.20;;;21.70;99.90;;;;;;5050934;28;20475;-78
2022/06/08 08:43:19;;;;;;;5.95;4.85;;;21.70;99.90;;;;;;5056718;28;20519;-78
2022/06/08 08:46:15;;;;;;;6.13;4.78;;;22.20;99.90;;;;;;5038733;28;20143;-79
2022/06/08 08:49:01;;;;;;;9.23;7.82;;;22.80;99.90;;;;;;5048590;28;20555;-78
2022/06/08 08:51:36;;;;;;;6.95;6.25;;;23.10;99.90;;;;;;5041260;28;20494;-78
2022/06/08 08:54:26;;;;;;;7.07;5.68;;;23.20;99.90;;;;;;5055386;28;20151;-78
2022/06/08 08:56:59;;;;;;;9.07;6.30;;;23.40;99.90;;;;;;5046080;28;20055;-78
2022/06/08 08:59:32;;;;;;;7.95;6.90;;;23.60;99.90;;;;;;5031544;28;20127;-78
2022/06/08 09:01:59;;;;;;;10.15;8.18;;;23.50;99.90;;;;;;5065368;28;20047;-78
2022/06/08 09:04:31;;;;;;;8.27;5.38;;;23.30;99.90;;;;;;5061822;28;20534;-78
2022/06/08 09:07:00;;;;;;;7.57;5.70;;;23.30;99.90;;;;;;5065059;28;20091;-79
2022/06/08 09:09:32;;;;;;;6.05;5.45;;;23.20;99.90;;;;;;5055928;28;20519;-78
2022/06/08 09:12:00;;;;;;;7.60;5.95;;;22.60;99.90;;;;;;5054439;28;20134;-78
2022/06/08 09:15:04;;;;;;;7.50;6.55;;;22.70;99.90;;;;;;5046830;28;20499;-79
2022/06/08 09:17:40;;;;;;;6.47;5.88;;;22.90;99.90;;;;;;5070344;28;20055;-79
2022/06/08 09:20:15;;;;;;;6.97;5.50;;;23.00;99.90;;;;;;5051503;28;20462;-79
2022/06/08 09:22:48;;;;;;;6.10;4.70;;;22.90;99.90;;;;;;5050785;28;20057;-78
2022/06/08 09:25:34;;;;;;;7.30;4.30;;;22.90;99.90;;;;;;5045257;28;20503;-78
2022/06/08 09:28:02;;;;;;;6.65;4.65;;;22.70;99.90;;;;;;5067089;28;20048;-78
2022/06/08 09:30:46;;;;;;;9.98;5.35;;;22.40;99.90;;;;;;5029409;28;20051;-78
2022/06/08 09:33:12;;;;;;;8.13;4.57;;;22.30;99.90;;;;;;5072208;28;20051;-78
2022/06/08 09:36:00;;;;;;;6.80;4.15;;;22.10;99.90;;;;;;5052167;28;20641;-78
2022/06/08 09:38:29;;;;;;;5.97;4.20;;;21.80;99.90;;;;;;5062706;28;20040;-78
2022/06/08 09:41:14;;;;;;;6.57;4.85;;;21.70;99.90;;;;;;5069470;28;20040;-83
2022/06/08 09:44:17;;;;;;;5.97;4.57;;;21.70;99.90;;;;;;5056194;28;20071;-77
2022/06/08 09:53:12;;;;;;;6.00;4.40;;;21.90;99.90;;;;;;5056602;28;20062;-79
2022/06/08 09:55:58;;;;;;;8.40;4.82;;;21.90;99.90;;;;;;5043535;28;20526;-80
2022/06/08 09:58:52;;;;;;;6.13;4.85;;;22.00;99.90;;;;;;5063355;28;20047;-79
2022/06/08 10:01:36;;;;;;;6.75;5.15;;;22.00;99.90;;;;;;5072881;28;20039;-78
2022/06/08 10:04:39;;;;;;;6.30;4.85;;;21.90;99.90;;;;;;5063151;28;20078;-79
2022/06/08 10:07:19;;;;;;;4.65;4.03;;;21.70;99.90;;;;;;5062602;28;20674;-79
2022/06/08 10:09:45;;;;;;;8.52;5.90;;;21.90;99.90;;;;;;5069274;28;20152;-79
2022/06/08 10:12:26;;;;;;;3.70;3.10;;;22.20;99.90;;;;;;5050905;28;20040;-79
2022/06/08 10:14:55;;;;;;;5.03;3.53;;;22.90;99.90;;;;;;5064734;28;20579;-78
2022/06/08 10:17:27;;;;;;;5.65;3.33;;;22.80;99.90;;;;;;5047954;28;20051;-79
2022/06/08 10:20:15;;;;;;;3.60;2.15;;;23.60;99.90;;;;;;5067447;28;20104;-80
2022/06/08 10:22:48;;;;;;;6.57;3.20;;;23.80;99.90;;;;;;5049791;28;20047;-79
2022/06/08 10:25:21;;;;;;;7.00;4.50;;;23.80;99.90;;;;;;5046439;28;20051;-79
2022/06/08 10:28:02;;;;;;;6.78;3.10;;;23.90;99.90;;;;;;5045731;28;20044;-79
2022/06/08 10:30:35;;;;;;;8.85;3.45;;;23.80;99.90;;;;;;5050096;28;20052;-80
2022/06/08 10:33:39;;;;;;;6.82;3.90;;;24.00;99.90;;;;;;5062859;28;20104;-79
2022/06/08 10:36:10;;;;;;;6.85;4.82;;;24.20;99.90;;;;;;5004092;28;20192;-79
2022/06/08 10:38:42;;;;;;;6.43;4.20;;;24.60;99.90;;;;;;5047581;28;20429;-79
2022/06/08 10:44:24;;;;;;;8.48;3.97;;;24.80;99.90;;;;;;5098063;27;19927;-78
2022/06/08 10:46:51;;;;;;;7.88;4.78;;;25.10;99.90;;;;;;5056487;28;21184;-79
2022/06/08 10:49:31;;;;;;;6.85;4.80;;;25.40;99.90;;;;;;5032215;28;20075;-79
2022/06/08 10:52:18;;;;;;;6.55;5.50;;;25.00;99.90;;;;;;5065125;28;20871;-79
2022/06/08 10:54:53;;;;;;;7.97;6.30;;;25.10;99.90;;;;;;5042770;28;20132;-79
2022/06/08 10:57:35;;;;;;;8.77;6.50;;;25.30;99.90;;;;;;5028248;28;20125;-79
2022/06/08 11:00:20;;;;;;;7.72;5.00;;;25.00;99.90;;;;;;5064348;28;20105;-80
2022/06/08 11:02:54;;;;;;;6.35;4.68;;;24.90;99.90;;;;;;5047777;28;20060;-80
2022/06/08 11:05:32;;;;;;;7.53;5.60;;;25.00;99.90;;;;;;5025231;28;20047;-80
2022/06/08 11:08:01;;;;;;;6.18;4.18;;;24.70;99.90;;;;;;5043269;28;20086;-80
2022/06/08 11:10:50;;;;;;;6.78;4.03;;;24.50;99.90;;;;;;5059926;28;20120;-80
2022/06/08 11:13:22;;;;;;;6.45;3.53;;;24.70;99.90;;;;;;5042540;28;20052;-80
2022/06/08 11:16:03;;;;;;;6.72;4.15;;;24.40;99.90;;;;;;5064382;28;20084;-80
2022/06/08 11:18:41;;;;;;;5.82;3.83;;;24.30;99.90;;;;;;5051492;28;20047;-82
2022/06/08 11:21:22;;;;;;;7.13;3.92;;;24.20;99.90;;;;;;5056497;28;20098;-82
2022/06/08 11:23:51;;;;;;;8.88;4.00;;;24.00;99.90;;;;;;5075952;28;20051;-82
2022/06/08 11:26:23;;;;;;;7.47;5.30;;;23.80;99.90;;;;;;5062678;28;20047;-82
2022/06/08 11:28:57;;;;;;;7.28;4.93;;;23.60;99.90;;;;;;5078780;28;20124;-82
2022/06/08 11:31:29;;;;;;;7.40;4.35;;;23.30;99.90;;;;;;5027921;28;20051;-82
2022/06/08 11:34:05;;;;;;;6.18;3.70;;;22.90;99.90;;;;;;5045155;28;20082;-81
2022/06/08 11:36:34;;;;;;;8.60;3.65;;;22.50;99.90;;;;;;5062136;28;20051;-79
2022/06/08 11:39:22;;;;;;;6.43;3.38;;;22.10;99.90;;;;;;5077962;28;20670;-79
2022/06/08 11:42:09;;;;;;;6.80;3.58;;;21.80;99.90;;;;;;5060795;28;20086;-79
2022/06/08 11:44:40;;;;;;;6.38;3.58;;;21.60;99.90;;;;;;5043395;28;20388;-79
2022/06/08 11:47:09;;;;;;;5.20;4.00;;;21.40;99.90;;;;;;5058898;28;20048;-79
2022/06/08 11:49:39;;;;;;;11.73;7.25;;;21.40;99.90;;;;;;5086964;28;20079;-79
2022/06/08 11:52:37;;;;;;;7.22;3.42;;;21.50;99.90;;;;;;5049860;28;20112;-78
2022/06/08 11:55:10;;;;;;;5.13;3.20;;;21.50;99.90;;;;;;5025266;28;20376;-79
2022/06/08 11:57:50;;;;;;;9.02;3.10;;;21.80;99.90;;;;;;5090675;28;20076;-80
2022/06/08 12:00:31;;;;;;;6.25;2.03;;;21.60;99.90;;;;;;5061142;28;20052;-80
2022/06/08 12:03:24;;;;;;;5.35;1.83;;;20.70;99.90;;;;;;5042380;28;20574;-80
2022/06/08 12:05:59;;;;;;;3.47;0.98;;;20.60;99.90;;;;;;5059441;28;20086;-79
2022/06/08 12:08:34;;;;;;;7.63;1.85;;;20.30;99.90;;;;;;5044568;28;20547;-79
2022/06/08 12:11:03;;;;;;;6.43;1.20;;;19.90;99.90;;;;;;5043928;28;20052;-79
2022/06/08 12:13:31;;;;;;;5.95;1.20;;;19.80;99.90;;;;;;5044987;28;20052;-79
2022/06/08 12:16:19;;;;;;;4.78;1.10;;;19.50;99.90;;;;;;5045518;28;20121;-81
2022/06/08 12:19:02;;;;;;;10.90;2.10;;;19.40;99.90;;;;;;5055315;28;20040;-80
2022/06/08 12:21:33;;;;;;;12.55;2.80;;;18.70;99.90;;;;;;5084232;28;20047;-81
2022/06/08 12:24:12;;;;;;;17.70;4.82;;;17.90;99.90;;;;;;5050714;28;20125;-82
2022/06/08 12:27:21;;;;;;;12.65;3.55;;;17.40;99.90;;;;;;5047513;28;20062;-81
2022/06/08 12:29:52;;;;;;;6.50;2.40;;;16.80;99.90;;;;;;5063978;28;20056;-79
2022/06/08 12:32:22;;;;;;;6.68;2.58;;;16.50;99.90;;;;;;5056160;28;20689;-82
2022/06/08 12:35:07;;;;;;;9.45;3.58;;;16.40;99.90;;;;;;5046141;28;20059;-79
2022/06/08 12:37:44;;;;;;;6.40;3.42;;;16.40;99.90;;;;;;5065192;28;20882;-80
2022/06/08 12:40:17;;;;;;;6.75;3.92;;;16.50;99.90;;;;;;5036918;28;20052;-80
2022/06/08 12:42:47;;;;;;;7.80;4.18;;;16.60;99.90;;;;;;5049315;28;20078;-80
2022/06/08 12:45:34;;;;;;;7.83;4.00;;;16.70;99.90;;;;;;5058523;28;20053;-80
2022/06/08 12:48:33;;;;;;;9.02;4.10;;;16.80;99.90;;;;;;5045156;28;20040;-80
2022/06/08 12:51:02;;;;;;;8.75;4.93;;;17.00;99.90;;;;;;5061724;28;20117;-80
2022/06/08 12:53:29;;;;;;;10.82;5.85;;;17.10;99.90;;;;;;5032608;28;20044;-81
2022/06/08 12:55:55;;;;;;;9.85;7.00;;;17.40;99.90;;;;;;5028773;28;20087;-81
2022/06/08 12:58:23;;;;;;;9.55;6.78;;;17.50;99.90;;;;;;5041586;28;20052;-81
2022/06/08 13:00:53;;;;;;;10.65;6.70;;;17.60;99.90;;;;;;5047639;28;20114;-81
2022/06/08 13:03:24;;;;;;;10.45;7.72;;;17.80;99.90;;;;;;5048116;28;20491;-80
2022/06/08 13:05:52;;;;;;;13.05;8.38;;;17.90;99.90;;;;;;5078993;28;20036;-81
2022/06/08 13:08:21;;;;;;;10.27;8.38;;;18.10;99.90;;;;;;5043364;28;20059;-81
2022/06/08 13:10:53;;;;;;;11.90;8.50;;;18.20;99.90;;;;;;5032624;28;20079;-80
2022/06/08 13:13:23;;;;;;;9.52;8.15;;;18.30;99.90;;;;;;5049764;28;20059;-81
2022/06/08 13:15:50;;;;;;;12.05;7.65;;;18.30;99.90;;;;;;5052048;28;20043;-80
2022/06/08 13:18:24;;;;;;;8.70;7.03;;;18.40;99.90;;;;;;5065621;28;20049;-80
2022/06/08 13:20:54;;;;;;;10.70;7.07;;;18.60;99.90;;;;;;5029834;28;20039;-81
2022/06/08 13:23:23;;;;;;;9.75;7.05;;;18.80;99.90;;;;;;5048243;28;20199;-79